Ninety Six, SC

3:12 PM EDT on August 28, 2015 (GMT -0400)
APRSWXNET | | Change Station
CLOSE
Current Station
Personal Weather Station
Location: Ninety Six, SC
Elevation: 492 ft
Nearby Weather Stations

Elev 492 ft 34.15 °N, 82.01 °W | Updated 36 minutes ago

Partly Cloudy
Partly Cloudy
83 °F
Feels Like 86 °F
N
1
Wind Variable Wind from East
Gusts 4.0 mph

Today
High -- | Low -- °F
--% Chance of Precip.
Yesterday
High -- | Low -- °F
Precip. -- in
6:58 AM 7:59 PM
Waxing Gibbous, 99% visible
Pressure 30.15 in
Visibility 10.0 miles
Clouds Few 4400 ft
Heat Index 86 °F
Dew Point 69 °F
Humidity 62%
Rainfall in
Snow Depth Not available.
UV 9 out of 12
Pollen 8.20 out of 12
Air Quality Not available.
Flu Activity Not available.
METAR KGRD 281856Z AUTO 11006KT 10SM FEW044 29/17 A3017 RMK AO2 SLP208 T02940167
Pressure 30.15 in
Visibility 10.0 miles
Clouds Few 4400 ft
Heat Index 86 °F
Dew Point 69 °F
Humidity 62%
Rainfall in
Snow Depth Not available.
UV 9 out of 12
Pollen 8.20 out of 12
Air Quality Not available.
Flu Activity Not available.
METAR KGRD 281856Z AUTO 11006KT 10SM FEW044 29/17 A3017 RMK AO2 SLP208 T02940167

10-Day Weather Forecast

×

Almanac

Astronomy

Aug. 28, 2015 Rise Set
Actual Time
Civil Twilight
Nautical Twilight
Astronomical Twilight
Moon
Length of Visible Light
Length of Day
Tomorrow will be .
, % of the Moon is Illuminated

Today's Extremes

State Highs State Lows

Community

WunderPhotos

Upload Photos

1,850,460 photos uploaded!

WunderBlogs® & News

Nearby

Air Quality

  Air Quality AQ Index Pollutant
Not available.

Snow Depth

Station Depth Elevation

Earthquake Activity

City Distance Mag. Time & Date
Minimum magnitude displayed is 2.5.

Coastal Water Temperatures

Place Temperature

Stations

Nearby Weather Stations

Station Location Temp. Windchill Dew Point Humidity Wind Precip. Elev Updated Type